createdAt,value
2023-03-22T00:01:23.804Z,22.98
2023-03-22T00:03:52.474Z,20.80
2023-03-22T00:06:20.459Z,21.73
2023-03-22T00:08:51.509Z,21.70
2023-03-22T00:11:21.877Z,21.75
2023-03-22T00:13:52.529Z,21.20
2023-03-22T00:16:21.769Z,21.20
2023-03-22T00:18:49.242Z,20.15
2023-03-22T00:21:17.286Z,18.35
2023-03-22T00:23:44.902Z,20.90
2023-03-22T00:26:14.066Z,18.50
2023-03-22T00:28:42.460Z,20.50
2023-03-22T00:31:10.980Z,18.75
2023-03-22T00:33:38.448Z,19.67
2023-03-22T00:36:09.727Z,19.38
2023-03-22T00:38:42.896Z,19.05
2023-03-22T00:41:23.993Z,19.58
2023-03-22T00:43:52.046Z,19.48
2023-03-22T00:46:21.581Z,16.88
2023-03-22T00:48:49.408Z,15.48
2023-03-22T00:51:18.169Z,15.32
2023-03-22T00:53:45.479Z,14.93
2023-03-22T00:56:14.414Z,15.90
2023-03-22T00:58:52.779Z,15.00
2023-03-22T01:01:20.742Z,14.98
2023-03-22T01:03:50.783Z,14.00
2023-03-22T01:06:18.705Z,14.40
2023-03-22T01:08:46.182Z,14.07
2023-03-22T01:11:13.419Z,16.33
2023-03-22T01:13:41.975Z,14.70
2023-03-22T01:16:10.671Z,14.50
2023-03-22T01:18:38.124Z,15.95
2023-03-22T01:21:06.391Z,16.70
2023-03-22T01:23:34.007Z,16.00
2023-03-22T01:26:01.695Z,15.23
2023-03-22T01:28:29.930Z,16.05
2023-03-22T01:31:02.994Z,15.52
2023-03-22T01:33:30.989Z,14.55
2023-03-22T01:35:58.788Z,14.52
2023-03-22T01:38:26.596Z,16.52
2023-03-22T01:40:57.792Z,15.55
2023-03-22T01:43:26.231Z,14.13
2023-03-22T01:45:54.952Z,13.60
2023-03-22T01:48:46.156Z,15.45
2023-03-22T01:51:25.360Z,14.38
2023-03-22T01:54:48.164Z,14.02
2023-03-22T01:57:45.689Z,13.23
2023-03-22T02:00:22.516Z,13.70
2023-03-22T02:03:15.607Z,14.52
2023-03-22T02:05:47.832Z,12.77
2023-03-22T02:08:16.254Z,14.52
2023-03-22T02:10:58.019Z,13.38
2023-03-22T02:14:09.227Z,12.93
2023-03-22T02:17:18.683Z,13.10
2023-03-22T02:20:24.686Z,13.45
2023-03-22T02:23:01.476Z,15.13
2023-03-22T02:25:54.932Z,13.40
2023-03-22T02:28:43.675Z,14.30
2023-03-22T02:31:48.024Z,12.90
2023-03-22T02:35:03.372Z,14.77
2023-03-22T02:37:58.410Z,14.23
2023-03-22T02:40:40.893Z,13.73
2023-03-22T02:43:38.695Z,13.15
2023-03-22T02:46:46.568Z,13.00
2023-03-22T02:49:35.976Z,12.98
2023-03-22T02:52:12.840Z,12.93
2023-03-22T02:54:53.680Z,12.48
2023-03-22T02:59:58.308Z,12.05
2023-03-22T03:02:28.197Z,11.85
2023-03-22T03:04:57.113Z,12.82
2023-03-22T03:07:30.625Z,12.70
2023-03-22T03:09:58.702Z,11.88
2023-03-22T03:12:28.170Z,12.13
2023-03-22T03:14:57.505Z,11.35
2023-03-22T03:17:47.102Z,11.70
2023-03-22T03:20:30.142Z,10.35
2023-03-22T03:23:57.872Z,10.95
2023-03-22T03:26:46.311Z,11.38
2023-03-22T03:29:22.634Z,11.18
2023-03-22T03:31:52.590Z,11.63
2023-03-22T03:34:38.534Z,10.23
2023-03-22T03:37:14.610Z,11.38
2023-03-22T03:40:09.998Z,10.73
2023-03-22T03:42:50.331Z,10.35
2023-03-22T03:45:19.482Z,10.95
2023-03-22T03:47:55.459Z,11.20
2023-03-22T03:50:25.313Z,9.55
2023-03-22T03:52:54.463Z,10.38
2023-03-22T03:55:23.761Z,10.82
2023-03-22T03:57:51.079Z,12.85
2023-03-22T04:00:19.264Z,12.40
2023-03-22T04:03:14.103Z,11.88
2023-03-22T04:06:09.020Z,11.82
2023-03-22T04:08:38.951Z,11.45
2023-03-22T04:11:07.326Z,11.20
2023-03-22T04:13:35.308Z,14.35
2023-03-22T04:16:07.305Z,12.75
2023-03-22T04:18:36.970Z,14.27
2023-03-22T04:21:07.722Z,12.30
2023-03-22T04:23:46.733Z,13.90
2023-03-22T04:26:14.148Z,14.50
2023-03-22T04:29:03.190Z,13.55
2023-03-22T04:31:33.980Z,13.50
2023-03-22T04:34:08.513Z,14.23
2023-03-22T04:36:50.772Z,14.18
2023-03-22T04:39:24.703Z,13.45
2023-03-22T04:41:59.641Z,14.02
2023-03-22T04:44:27.602Z,15.52
2023-03-22T04:46:55.876Z,14.25
2023-03-22T04:49:23.292Z,14.40
2023-03-22T04:51:50.652Z,16.33
2023-03-22T04:54:24.290Z,14.43
2023-03-22T04:56:51.705Z,15.38
2023-03-22T04:59:21.965Z,14.00
2023-03-22T05:01:51.672Z,14.55
2023-03-22T05:04:23.059Z,14.43
2023-03-22T05:06:56.655Z,13.70
2023-03-22T05:09:31.599Z,14.70
2023-03-22T05:11:59.023Z,15.52
2023-03-22T05:14:46.454Z,14.75
2023-03-22T05:17:16.748Z,14.55
2023-03-22T05:19:44.875Z,14.23
2023-03-22T05:22:13.347Z,14.40
2023-03-22T05:24:49.189Z,14.98
2023-03-22T05:27:31.220Z,14.07
2023-03-22T05:30:10.608Z,15.32
2023-03-22T05:32:47.621Z,14.68
2023-03-22T05:35:14.993Z,14.27
2023-03-22T05:37:47.314Z,14.45
2023-03-22T05:40:17.004Z,13.85
2023-03-22T05:42:45.614Z,14.48
2023-03-22T05:45:21.474Z,14.13
2023-03-22T05:47:57.441Z,12.68
2023-03-22T05:50:25.999Z,13.48
2023-03-22T05:52:53.507Z,14.00
2023-03-22T05:55:39.338Z,12.82
2023-03-22T05:58:07.689Z,12.90
2023-03-22T06:00:38.878Z,13.43
2023-03-22T06:03:29.106Z,12.43
2023-03-22T06:06:10.793Z,12.45
2023-03-22T06:08:47.892Z,13.63
2023-03-22T06:11:15.526Z,13.45
2023-03-22T06:13:42.759Z,13.13
2023-03-22T06:16:11.482Z,11.43
2023-03-22T06:18:39.162Z,13.27
2023-03-22T06:21:10.827Z,12.43
2023-03-22T06:23:38.441Z,11.15
2023-03-22T06:26:06.661Z,12.43
2023-03-22T06:28:35.996Z,11.02
2023-03-22T06:31:11.219Z,11.40
2023-03-22T06:33:55.933Z,11.52
2023-03-22T06:36:32.405Z,11.48
2023-03-22T06:39:05.421Z,11.45
2023-03-22T06:41:33.269Z,11.32
2023-03-22T06:44:01.354Z,11.73
2023-03-22T06:46:48.993Z,10.50
2023-03-22T06:49:36.088Z,11.02
2023-03-22T06:52:04.213Z,11.93
2023-03-22T06:54:32.151Z,11.05
2023-03-22T06:56:59.681Z,10.50
2023-03-22T06:59:27.769Z,11.00
2023-03-22T07:01:55.134Z,11.25
2023-03-22T07:04:22.575Z,10.27
2023-03-22T07:06:50.839Z,11.02
2023-03-22T07:09:18.694Z,10.50
2023-03-22T07:11:48.631Z,10.82
2023-03-22T07:14:16.410Z,11.05
2023-03-22T07:16:57.031Z,11.63
2023-03-22T07:19:24.860Z,11.80
2023-03-22T07:21:52.249Z,11.07
2023-03-22T07:24:19.439Z,11.13
2023-03-22T07:26:47.064Z,11.75
2023-03-22T07:29:19.383Z,11.98
2023-03-22T07:31:47.054Z,11.45
2023-03-22T07:34:23.854Z,10.55
2023-03-22T07:37:03.106Z,11.27
2023-03-22T07:39:31.167Z,11.02
2023-03-22T07:41:58.880Z,10.75
2023-03-22T07:44:27.078Z,11.65
2023-03-22T07:47:13.152Z,11.52
2023-03-22T07:49:46.563Z,11.55
2023-03-22T07:52:18.186Z,10.90
2023-03-22T07:54:45.543Z,10.65
2023-03-22T07:57:13.940Z,11.05
2023-03-22T07:59:47.277Z,10.95
2023-03-22T08:02:16.138Z,10.18
2023-03-22T08:04:55.746Z,10.70
2023-03-22T08:07:37.849Z,10.13
2023-03-22T08:10:06.498Z,10.23
2023-03-22T08:12:35.482Z,11.00
2023-03-22T08:15:15.702Z,9.30
2023-03-22T08:17:43.522Z,9.80
2023-03-22T08:20:18.482Z,10.95
2023-03-22T08:22:51.294Z,9.38
2023-03-22T08:25:44.857Z,10.13
2023-03-22T08:28:14.560Z,8.90
2023-03-22T08:30:45.382Z,8.20
2023-03-22T08:33:14.083Z,9.60
2023-03-22T08:35:43.151Z,9.30
2023-03-22T08:38:10.432Z,9.80
2023-03-22T08:40:48.046Z,9.50
2023-03-22T08:43:19.434Z,9.68
2023-03-22T08:45:47.723Z,10.32
2023-03-22T08:48:17.185Z,8.75
2023-03-22T08:51:01.193Z,9.27
2023-03-22T08:53:37.483Z,9.70
2023-03-22T08:56:27.541Z,10.85
2023-03-22T08:59:10.230Z,8.23
2023-03-22T09:01:47.278Z,8.77
2023-03-22T09:04:14.875Z,8.85
2023-03-22T09:06:45.337Z,8.07
2023-03-22T09:09:13.141Z,9.93
2023-03-22T09:11:42.945Z,8.85
2023-03-22T09:14:10.871Z,8.85
2023-03-22T09:16:38.549Z,8.52
2023-03-22T09:19:06.849Z,9.18
2023-03-22T09:21:34.730Z,10.48
2023-03-22T09:24:14.495Z,10.60
2023-03-22T09:26:49.262Z,11.75
2023-03-22T09:29:19.583Z,11.30
2023-03-22T09:31:49.015Z,11.63
2023-03-22T09:34:19.353Z,10.02
2023-03-22T09:36:47.563Z,10.20
2023-03-22T09:39:17.905Z,10.18
2023-03-22T09:41:56.197Z,10.77
2023-03-22T09:44:32.350Z,10.57
2023-03-22T09:47:02.286Z,10.75
2023-03-22T09:49:52.861Z,9.50
2023-03-22T09:52:20.925Z,9.20
2023-03-22T09:54:48.283Z,9.68
2023-03-22T09:57:37.314Z,15.90
2023-03-22T10:00:22.293Z,14.18
2023-03-22T10:03:17.214Z,16.63
2023-03-22T10:06:03.043Z,10.25
2023-03-22T10:08:47.061Z,9.43
2023-03-22T10:12:05.247Z,10.98
2023-03-22T10:14:46.000Z,12.65
2023-03-22T10:17:19.117Z,11.35
2023-03-22T10:20:06.177Z,10.05
2023-03-22T10:22:42.786Z,11.80
2023-03-22T10:25:15.725Z,10.30
2023-03-22T10:27:44.022Z,8.95
2023-03-22T10:30:27.432Z,9.25
2023-03-22T10:33:05.098Z,13.95
2023-03-22T10:35:33.063Z,10.77
2023-03-22T10:38:05.163Z,11.77
2023-03-22T10:40:36.375Z,11.80
2023-03-22T10:43:20.083Z,11.15
2023-03-22T10:45:48.841Z,10.60
2023-03-22T10:48:35.892Z,10.32
2023-03-22T10:51:04.447Z,10.18
2023-03-22T10:53:49.255Z,11.60
2023-03-22T10:56:20.274Z,11.10
2023-03-22T10:58:51.922Z,11.07
2023-03-22T11:01:40.280Z,11.75
2023-03-22T11:04:13.048Z,11.05
2023-03-22T11:06:56.070Z,11.00
2023-03-22T11:09:24.761Z,11.77
2023-03-22T11:11:59.093Z,9.60
2023-03-22T11:14:33.526Z,11.15
2023-03-22T11:17:14.750Z,10.68
2023-03-22T11:19:53.915Z,8.93
2023-03-22T11:22:38.631Z,5.30
2023-03-22T11:25:30.883Z,5.57
2023-03-22T11:28:09.579Z,5.22
2023-03-22T11:30:37.984Z,4.15
2023-03-22T11:33:08.401Z,4.40
2023-03-22T11:35:39.499Z,4.63
2023-03-22T11:38:07.688Z,4.78
2023-03-22T11:40:36.969Z,2.95
2023-03-22T11:43:23.470Z,3.10
2023-03-22T11:45:57.126Z,3.63
2023-03-22T11:48:33.374Z,2.90
2023-03-22T11:51:07.138Z,3.33
2023-03-22T11:53:39.872Z,3.15
2023-03-22T11:56:12.608Z,3.28
2023-03-22T11:58:42.572Z,3.13
2023-03-22T12:01:26.223Z,3.22
2023-03-22T12:03:57.437Z,2.70
2023-03-22T12:06:33.648Z,3.25
2023-03-22T12:09:43.183Z,3.58
2023-03-22T12:15:08.355Z,2.90
2023-03-22T12:17:45.258Z,3.38
2023-03-22T12:20:38.417Z,3.20
2023-03-22T12:23:20.213Z,3.17
2023-03-22T12:26:18.376Z,3.17
2023-03-22T12:29:05.408Z,3.35
2023-03-22T12:31:48.390Z,2.63
2023-03-22T12:34:25.991Z,3.42
2023-03-22T12:36:57.015Z,3.03
2023-03-22T12:39:39.144Z,3.35
2023-03-22T12:42:29.313Z,2.80
2023-03-22T12:45:11.207Z,3.22
2023-03-22T12:47:55.376Z,3.58
2023-03-22T12:50:36.126Z,3.05
2023-03-22T12:53:04.659Z,3.00
2023-03-22T12:55:37.059Z,3.15
2023-03-22T12:58:10.278Z,2.47
2023-03-22T13:00:54.165Z,2.80
2023-03-22T13:03:37.826Z,2.40
2023-03-22T13:06:28.086Z,2.58
2023-03-22T13:12:17.516Z,1.90
2023-03-22T13:14:53.210Z,2.47
2023-03-22T13:17:23.688Z,2.17
2023-03-22T13:20:13.675Z,2.42
2023-03-22T13:22:43.721Z,2.30
2023-03-22T13:25:13.976Z,2.38
2023-03-22T13:30:55.013Z,2.75
2023-03-22T13:33:32.164Z,2.33
2023-03-22T13:36:25.085Z,1.52
2023-03-22T13:39:07.994Z,2.00
2023-03-22T13:41:36.116Z,2.63
2023-03-22T13:44:26.710Z,3.20
2023-03-22T13:47:01.338Z,2.60
2023-03-22T13:49:56.531Z,2.17
2023-03-22T13:52:38.734Z,3.03
2023-03-22T13:55:41.614Z,2.00
2023-03-22T13:58:52.388Z,2.13
2023-03-22T14:01:48.009Z,1.60
2023-03-22T14:04:22.793Z,2.55
2023-03-22T14:06:55.151Z,2.38
2023-03-22T14:09:44.731Z,1.83
2023-03-22T14:13:03.956Z,1.90
2023-03-22T14:15:38.177Z,2.22
2023-03-22T14:18:37.258Z,2.00
2023-03-22T14:21:12.540Z,1.50
